createdAt,value
2017-12-12T00:00:02.784Z,7.90
2017-12-12T00:02:30.773Z,7.90
2017-12-12T00:04:59.749Z,7.80
2017-12-12T00:07:28.685Z,7.80
2017-12-12T00:09:56.942Z,7.80
2017-12-12T00:12:26.257Z,7.70
2017-12-12T00:14:54.637Z,7.70
2017-12-12T00:17:22.669Z,7.60
2017-12-12T00:19:51.686Z,7.30
2017-12-12T00:22:32.604Z,7.30
2017-12-12T00:25:00.821Z,7.10
2017-12-12T00:27:28.950Z,6.90
2017-12-12T00:29:56.993Z,6.80
2017-12-12T00:32:24.811Z,6.60
2017-12-12T00:34:53.643Z,6.50
2017-12-12T00:37:22.045Z,6.50
2017-12-12T00:39:50.297Z,6.50
2017-12-12T00:42:19.359Z,6.60
2017-12-12T00:44:47.991Z,6.60
2017-12-12T00:47:17.065Z,6.60
2017-12-12T00:49:44.899Z,6.50
2017-12-12T00:52:13.237Z,6.60
2017-12-12T00:54:42.102Z,6.50
2017-12-12T00:57:21.306Z,6.50
2017-12-12T00:59:49.581Z,6.50
2017-12-12T01:02:18.794Z,6.60
2017-12-12T01:04:46.879Z,6.60
2017-12-12T01:07:15.006Z,6.50
2017-12-12T01:09:42.806Z,6.40
2017-12-12T01:12:10.556Z,6.30
2017-12-12T01:14:38.589Z,6.20
2017-12-12T01:17:06.703Z,6.10
2017-12-12T01:19:35.308Z,6.10
2017-12-12T01:22:03.294Z,6.10
2017-12-12T01:24:31.565Z,6.00
2017-12-12T01:27:00.524Z,5.90
2017-12-12T01:29:30.398Z,5.80
2017-12-12T01:31:58.522Z,5.80
2017-12-12T01:34:26.772Z,5.80
2017-12-12T01:36:54.692Z,5.80
2017-12-12T01:39:22.799Z,5.70
2017-12-12T01:41:50.959Z,5.80
2017-12-12T01:44:18.996Z,5.70
2017-12-12T01:46:48.046Z,5.50
2017-12-12T01:49:16.009Z,5.40
2017-12-12T01:51:44.341Z,5.20
2017-12-12T01:54:12.250Z,5.10
2017-12-12T01:56:41.159Z,4.90
2017-12-12T01:59:09.656Z,4.90
2017-12-12T02:01:38.781Z,4.80
2017-12-12T02:04:06.891Z,4.80
2017-12-12T02:06:35.359Z,4.80
2017-12-12T02:09:03.244Z,4.80
2017-12-12T02:11:31.483Z,4.80
2017-12-12T02:13:59.639Z,4.80
2017-12-12T02:16:27.799Z,4.80
2017-12-12T02:18:56.067Z,4.80
2017-12-12T02:21:24.553Z,4.80
2017-12-12T02:23:53.997Z,4.70
2017-12-12T02:26:22.024Z,4.70
2017-12-12T02:28:51.103Z,4.70
2017-12-12T02:31:19.047Z,4.70
2017-12-12T02:33:48.078Z,4.60
2017-12-12T02:36:16.168Z,4.60
2017-12-12T02:38:45.123Z,4.60
2017-12-12T02:41:13.219Z,4.60
2017-12-12T02:43:41.283Z,4.70
2017-12-12T02:46:09.240Z,4.70
2017-12-12T02:48:37.634Z,4.60
2017-12-12T02:51:05.799Z,4.60
2017-12-12T02:53:33.966Z,4.50
2017-12-12T02:56:02.088Z,4.50
2017-12-12T02:58:31.995Z,4.40
2017-12-12T03:00:59.742Z,4.40
2017-12-12T03:03:27.801Z,4.30
2017-12-12T03:05:56.812Z,4.30
2017-12-12T03:08:24.853Z,4.20
2017-12-12T03:10:52.733Z,4.10
2017-12-12T03:13:20.585Z,4.20
2017-12-12T03:15:48.636Z,4.20
2017-12-12T03:18:17.751Z,4.10
2017-12-12T03:20:45.902Z,4.10
2017-12-12T03:23:15.832Z,4.10
2017-12-12T03:25:43.666Z,4.10
2017-12-12T03:28:11.587Z,4.10
2017-12-12T03:30:39.802Z,4.10
2017-12-12T03:33:08.522Z,4.10
2017-12-12T03:35:38.718Z,4.00
2017-12-12T03:38:08.293Z,3.90
2017-12-12T03:40:36.337Z,3.90
2017-12-12T03:43:05.538Z,3.90
2017-12-12T03:45:33.517Z,3.90
2017-12-12T03:48:02.656Z,3.90
2017-12-12T03:50:31.060Z,3.90
2017-12-12T03:52:59.051Z,3.90
2017-12-12T03:55:26.605Z,3.90
2017-12-12T03:57:54.269Z,3.90
2017-12-12T04:00:21.793Z,4.00
2017-12-12T04:02:50.079Z,4.00
2017-12-12T04:05:18.647Z,4.00
2017-12-12T04:07:46.176Z,4.00
2017-12-12T04:10:13.730Z,4.00
2017-12-12T04:12:41.253Z,4.00
2017-12-12T04:15:08.803Z,3.90
2017-12-12T04:17:36.331Z,3.80
2017-12-12T04:20:03.851Z,3.80
2017-12-12T04:22:31.394Z,3.80
2017-12-12T04:24:58.931Z,3.80
2017-12-12T04:27:28.423Z,3.80
2017-12-12T04:29:55.951Z,3.90
2017-12-12T04:32:23.498Z,3.90
2017-12-12T04:34:51.012Z,3.90
2017-12-12T04:37:19.551Z,3.90
2017-12-12T04:39:47.112Z,3.80
2017-12-12T04:42:15.613Z,3.80
2017-12-12T04:44:43.162Z,3.80
2017-12-12T04:47:10.696Z,3.80
2017-12-12T04:49:38.258Z,3.80
2017-12-12T04:52:05.781Z,3.80
2017-12-12T04:54:34.273Z,3.80
2017-12-12T04:57:01.830Z,3.80
2017-12-12T04:59:29.363Z,3.90
2017-12-12T05:01:56.924Z,3.90
2017-12-12T05:04:24.448Z,3.90
2017-12-12T05:06:52.768Z,3.90
2017-12-12T05:09:20.315Z,3.90
2017-12-12T05:11:47.844Z,3.90
2017-12-12T05:14:15.398Z,4.00
2017-12-12T05:16:42.915Z,4.00
2017-12-12T05:19:10.456Z,4.10
2017-12-12T05:21:39.703Z,4.20
2017-12-12T05:24:07.220Z,4.20
2017-12-12T05:26:34.769Z,4.20
2017-12-12T05:29:02.456Z,4.10
2017-12-12T05:31:30.003Z,4.00
2017-12-12T05:33:57.531Z,3.90
2017-12-12T05:36:25.088Z,3.80
2017-12-12T05:38:53.378Z,3.70
2017-12-12T05:41:21.679Z,3.70
2017-12-12T05:43:49.228Z,3.70
2017-12-12T05:46:16.750Z,3.70
2017-12-12T05:48:44.312Z,3.70
2017-12-12T05:51:12.604Z,3.70
2017-12-12T05:53:41.843Z,3.80
2017-12-12T05:56:09.400Z,3.70
2017-12-12T05:58:36.927Z,3.80
2017-12-12T06:01:05.439Z,3.80
2017-12-12T06:03:32.955Z,3.70
2017-12-12T06:06:00.507Z,3.80
2017-12-12T06:08:28.080Z,3.80
2017-12-12T06:10:58.140Z,3.90
2017-12-12T06:13:27.706Z,3.90
2017-12-12T06:15:55.243Z,3.90
2017-12-12T06:18:22.799Z,3.90
2017-12-12T06:20:50.324Z,3.90
2017-12-12T06:23:17.854Z,3.90
2017-12-12T06:25:45.404Z,3.90
2017-12-12T06:28:12.943Z,4.00
2017-12-12T06:30:40.507Z,4.00
2017-12-12T06:33:09.764Z,4.00
2017-12-12T06:35:37.335Z,4.00
2017-12-12T06:38:06.157Z,4.00
2017-12-12T06:40:34.069Z,4.00
2017-12-12T06:43:01.642Z,3.90
2017-12-12T06:45:29.173Z,4.00
2017-12-12T06:47:56.716Z,4.00
2017-12-12T06:50:24.240Z,4.00
2017-12-12T06:52:51.760Z,4.00
2017-12-12T06:55:19.312Z,4.10
2017-12-12T06:57:47.800Z,4.00
2017-12-12T07:00:15.360Z,4.10
2017-12-12T07:02:42.879Z,4.10
2017-12-12T07:05:11.363Z,4.00
2017-12-12T07:07:41.637Z,4.10
2017-12-12T07:10:10.487Z,4.10
2017-12-12T07:12:39.067Z,4.20
2017-12-12T07:15:06.627Z,4.20
2017-12-12T07:17:34.148Z,4.20
2017-12-12T07:20:02.485Z,4.20
2017-12-12T07:22:30.011Z,4.20
2017-12-12T07:24:57.562Z,4.20
2017-12-12T07:27:25.079Z,4.20
2017-12-12T07:29:52.626Z,4.30
2017-12-12T07:32:20.158Z,4.30
2017-12-12T07:34:47.691Z,4.30
2017-12-12T07:37:15.235Z,4.30
2017-12-12T07:39:42.803Z,4.30
2017-12-12T07:42:13.047Z,4.30
2017-12-12T07:44:41.339Z,4.20
2017-12-12T07:47:08.858Z,4.20
2017-12-12T07:49:39.103Z,4.20
2017-12-12T07:52:06.633Z,4.20
2017-12-12T07:54:34.923Z,4.00
2017-12-12T07:57:03.236Z,3.90
2017-12-12T07:59:30.760Z,3.90
2017-12-12T08:01:58.310Z,3.80
2017-12-12T08:04:26.634Z,4.00
2017-12-12T08:06:54.155Z,4.00
2017-12-12T08:09:22.466Z,4.10
2017-12-12T08:11:50.001Z,4.10
2017-12-12T08:14:17.526Z,4.10
2017-12-12T08:16:45.840Z,4.20
2017-12-12T08:19:13.409Z,4.20
2017-12-12T08:21:40.955Z,4.20
2017-12-12T08:24:10.504Z,4.30
2017-12-12T08:26:38.966Z,4.10
2017-12-12T08:29:06.508Z,4.10
2017-12-12T08:31:34.022Z,4.00
2017-12-12T08:34:01.543Z,4.10
2017-12-12T08:36:29.086Z,4.10
2017-12-12T08:38:56.615Z,4.00
2017-12-12T08:41:24.938Z,4.10
2017-12-12T08:43:52.468Z,4.10
2017-12-12T08:46:20.936Z,4.20
2017-12-12T08:48:49.256Z,4.20
2017-12-12T08:51:16.800Z,4.20
2017-12-12T08:53:44.351Z,4.30
2017-12-12T08:56:11.879Z,4.40
2017-12-12T08:58:40.180Z,4.90
2017-12-12T09:01:07.740Z,4.90
2017-12-12T09:03:35.321Z,5.00
2017-12-12T09:06:02.847Z,4.90
2017-12-12T09:08:30.396Z,5.10
2017-12-12T09:10:57.924Z,5.40
2017-12-12T09:13:25.451Z,5.60
2017-12-12T09:15:53.007Z,5.70
2017-12-12T09:18:20.536Z,5.80
2017-12-12T09:20:48.091Z,5.80
2017-12-12T09:23:16.379Z,5.60
2017-12-12T09:25:43.911Z,5.60
2017-12-12T09:28:11.468Z,5.60
2017-12-12T09:30:38.999Z,5.60
2017-12-12T09:33:06.557Z,5.40
2017-12-12T09:35:35.032Z,5.40
2017-12-12T09:38:02.555Z,5.40
2017-12-12T09:40:30.111Z,5.40
2017-12-12T09:42:58.393Z,5.30
2017-12-12T09:45:25.923Z,5.30
2017-12-12T09:47:54.237Z,5.50
2017-12-12T09:50:21.758Z,5.60
2017-12-12T09:52:49.308Z,5.60
2017-12-12T09:55:17.820Z,5.70
2017-12-12T09:57:46.099Z,5.70
2017-12-12T10:00:13.651Z,5.70
2017-12-12T10:02:41.166Z,5.60
2017-12-12T10:05:08.693Z,5.50
2017-12-12T10:07:36.246Z,5.70
2017-12-12T10:10:03.768Z,5.70
2017-12-12T10:12:31.324Z,5.50
2017-12-12T10:14:58.907Z,5.40
2017-12-12T10:17:26.408Z,5.50
2017-12-12T10:19:53.956Z,5.60
2017-12-12T10:22:21.480Z,5.60
2017-12-12T10:24:49.760Z,5.70
2017-12-12T10:27:17.302Z,5.70
2017-12-12T10:29:44.818Z,5.70
2017-12-12T10:32:12.335Z,5.80
2017-12-12T10:34:40.062Z,5.80
2017-12-12T10:37:07.589Z,6.00
2017-12-12T10:39:35.163Z,6.00
2017-12-12T10:42:02.686Z,6.10
2017-12-12T10:44:30.217Z,6.10
2017-12-12T10:46:57.763Z,6.10
2017-12-12T10:49:25.296Z,6.00
2017-12-12T10:51:52.811Z,6.00
2017-12-12T10:54:20.364Z,6.00
2017-12-12T10:56:47.896Z,6.00
2017-12-12T10:59:15.465Z,6.10
2017-12-12T11:01:45.011Z,6.20
2017-12-12T11:04:12.527Z,6.10
2017-12-12T11:06:40.054Z,6.30
2017-12-12T11:09:09.551Z,6.60
2017-12-12T11:11:37.068Z,7.10
2017-12-12T11:14:04.598Z,7.20
2017-12-12T11:16:32.144Z,7.10
2017-12-12T11:18:59.675Z,7.10
2017-12-12T11:21:27.243Z,7.00
2017-12-12T11:23:54.765Z,7.00
2017-12-12T11:26:22.295Z,7.00
2017-12-12T11:28:49.845Z,7.30
2017-12-12T11:31:17.404Z,7.40
2017-12-12T11:33:44.964Z,7.30
2017-12-12T11:36:12.487Z,7.40
2017-12-12T11:38:40.013Z,7.50
2017-12-12T11:41:07.579Z,7.50
2017-12-12T11:43:35.108Z,7.40
2017-12-12T11:46:03.458Z,7.20
2017-12-12T11:48:30.984Z,7.20
2017-12-12T11:50:58.509Z,7.20
2017-12-12T11:53:26.083Z,7.10
2017-12-12T11:55:53.610Z,7.10
2017-12-12T11:58:21.136Z,7.20
2017-12-12T12:00:48.711Z,7.30
2017-12-12T12:03:16.235Z,7.20
2017-12-12T12:05:43.760Z,7.20
2017-12-12T12:08:12.083Z,8.00
2017-12-12T12:10:39.614Z,7.90
2017-12-12T12:13:07.134Z,8.30
2017-12-12T12:15:34.685Z,8.40
2017-12-12T12:18:02.230Z,8.30
2017-12-12T12:20:29.775Z,8.30
2017-12-12T12:22:59.263Z,8.00
2017-12-12T12:25:26.796Z,7.80
2017-12-12T12:27:55.081Z,7.20
2017-12-12T12:30:23.396Z,7.00
2017-12-12T12:32:50.952Z,6.90
2017-12-12T12:35:18.485Z,7.20
2017-12-12T12:37:48.000Z,7.50
2017-12-12T12:40:15.530Z,7.60
2017-12-12T12:42:43.079Z,7.80
2017-12-12T12:45:12.599Z,7.70
2017-12-12T12:47:40.887Z,7.90
2017-12-12T12:50:10.386Z,7.90
2017-12-12T12:52:37.903Z,7.90
2017-12-12T12:55:06.347Z,7.90
2017-12-12T12:57:33.893Z,8.00
2017-12-12T13:00:01.422Z,8.00
2017-12-12T13:02:28.962Z,8.10
2017-12-12T13:04:59.258Z,7.90
2017-12-12T13:07:26.774Z,7.80
2017-12-12T13:09:55.070Z,7.50
2017-12-12T13:12:22.622Z,7.50
2017-12-12T13:14:50.165Z,7.30
2017-12-12T13:17:17.687Z,7.10
2017-12-12T13:19:47.201Z,7.10
2017-12-12T13:22:15.675Z,7.10
2017-12-12T13:24:43.243Z,7.50
2017-12-12T13:27:10.760Z,7.40
2017-12-12T13:29:38.283Z,7.60
2017-12-12T13:32:06.608Z,7.70
2017-12-12T13:34:34.138Z,7.70
2017-12-12T13:37:01.707Z,7.60
2017-12-12T13:39:29.239Z,7.30
2017-12-12T13:41:57.533Z,7.00
2017-12-12T13:44:25.104Z,6.90
2017-12-12T13:46:52.627Z,7.10
2017-12-12T13:49:20.174Z,7.10
2017-12-12T13:51:49.728Z,7.00
2017-12-12T13:54:18.244Z,6.90
2017-12-12T13:56:46.569Z,6.90
2017-12-12T13:59:14.120Z,6.90
2017-12-12T14:01:42.402Z,6.80
2017-12-12T14:04:09.935Z,6.80
2017-12-12T14:06:38.262Z,6.50
2017-12-12T14:09:05.797Z,6.50
2017-12-12T14:11:33.362Z,6.40
2017-12-12T14:14:00.906Z,6.50
2017-12-12T14:16:28.436Z,6.40
2017-12-12T14:18:57.925Z,6.50
2017-12-12T14:21:25.455Z,6.20
2017-12-12T14:23:53.992Z,6.10
2017-12-12T14:26:22.282Z,6.10
2017-12-12T14:28:49.799Z,6.10
2017-12-12T14:31:17.371Z,6.10
2017-12-12T14:33:44.900Z,5.90
2017-12-12T14:36:12.447Z,5.90
2017-12-12T14:38:39.971Z,5.90
2017-12-12T14:41:07.487Z,5.60
2017-12-12T14:43:35.032Z,5.50
2017-12-12T14:46:02.563Z,5.50
2017-12-12T14:48:30.083Z,5.60
2017-12-12T14:50:58.415Z,5.50
2017-12-12T14:53:25.942Z,5.50
2017-12-12T14:55:53.472Z,5.80
2017-12-12T14:58:21.064Z,6.00
2017-12-12T15:00:48.590Z,6.20
2017-12-12T15:03:16.131Z,6.30
2017-12-12T15:05:44.644Z,6.20
2017-12-12T15:08:12.961Z,5.80
2017-12-12T15:10:40.492Z,5.80
2017-12-12T15:13:08.052Z,5.80
2017-12-12T15:15:36.346Z,5.80
2017-12-12T15:18:03.905Z,5.80
2017-12-12T15:20:31.432Z,5.80
2017-12-12T15:22:59.736Z,5.70
2017-12-12T15:25:27.299Z,5.70
2017-12-12T15:27:54.834Z,5.50
2017-12-12T15:30:22.383Z,5.40
2017-12-12T15:32:49.909Z,5.40
2017-12-12T15:35:17.446Z,5.30
2017-12-12T15:37:45.006Z,5.30
2017-12-12T15:40:12.553Z,5.20
2017-12-12T15:42:40.116Z,5.00
2017-12-12T15:45:07.636Z,5.00
2017-12-12T15:47:35.154Z,5.00
2017-12-12T15:50:02.733Z,5.10
2017-12-12T15:52:30.258Z,5.10
2017-12-12T15:54:57.795Z,5.00
2017-12-12T15:57:26.328Z,5.00
2017-12-12T15:59:53.842Z,5.00
2017-12-12T16:02:21.388Z,4.90
2017-12-12T16:04:50.643Z,4.90
2017-12-12T16:07:18.195Z,4.90
2017-12-12T16:09:46.674Z,5.00
2017-12-12T16:12:14.202Z,5.10
2017-12-12T16:14:41.773Z,5.00
2017-12-12T16:17:10.248Z,4.90
2017-12-12T16:19:37.799Z,4.80
2017-12-12T16:22:05.326Z,4.80
2017-12-12T16:24:32.901Z,4.80
2017-12-12T16:27:00.507Z,4.90
2017-12-12T16:29:28.058Z,4.90
2017-12-12T16:31:55.608Z,4.90
2017-12-12T16:34:23.167Z,4.80
2017-12-12T16:36:50.715Z,4.70
2017-12-12T16:39:18.247Z,4.70
2017-12-12T16:41:45.831Z,4.60
2017-12-12T16:44:13.363Z,4.60
2017-12-12T16:46:40.887Z,4.60
2017-12-12T16:49:08.442Z,4.50
2017-12-12T16:51:35.970Z,4.50
2017-12-12T16:54:03.489Z,4.50
2017-12-12T16:56:31.036Z,4.50
2017-12-12T16:59:00.306Z,4.80
2017-12-12T17:01:27.834Z,4.80
2017-12-12T17:03:57.355Z,4.70
2017-12-12T17:06:24.888Z,4.80
2017-12-12T17:08:52.443Z,4.80
2017-12-12T17:11:19.999Z,4.80
2017-12-12T17:13:48.292Z,5.00
2017-12-12T17:16:15.871Z,5.00
2017-12-12T17:18:44.356Z,5.00
2017-12-12T17:21:12.834Z,5.00
2017-12-12T17:23:40.399Z,4.90
2017-12-12T17:26:07.918Z,4.80
2017-12-12T17:28:37.154Z,4.70
2017-12-12T17:31:04.726Z,4.70
2017-12-12T17:33:32.327Z,4.60
2017-12-12T17:35:59.891Z,4.60
2017-12-12T17:38:28.214Z,4.70
2017-12-12T17:40:55.749Z,4.70
2017-12-12T17:43:23.278Z,4.60
2017-12-12T17:45:50.827Z,4.70
2017-12-12T17:48:18.362Z,4.70
2017-12-12T17:50:45.891Z,4.70
2017-12-12T17:53:25.265Z,4.70
2017-12-12T17:55:52.795Z,4.70
2017-12-12T17:58:20.333Z,4.70
2017-12-12T18:00:47.894Z,4.70
2017-12-12T18:03:16.388Z,4.70
2017-12-12T18:05:43.935Z,4.70
2017-12-12T18:08:11.447Z,4.60
2017-12-12T18:10:39.004Z,4.60
2017-12-12T18:13:07.406Z,4.50
2017-12-12T18:15:36.653Z,4.50
2017-12-12T18:18:04.210Z,4.50
2017-12-12T18:20:31.744Z,4.40
2017-12-12T18:22:59.304Z,4.20
2017-12-12T18:25:28.500Z,4.20
2017-12-12T18:27:56.132Z,4.10
2017-12-12T18:30:23.704Z,4.00
2017-12-12T18:32:52.245Z,4.00
2017-12-12T18:35:20.715Z,3.90
2017-12-12T18:37:48.254Z,3.90
2017-12-12T18:40:15.780Z,3.90
2017-12-12T18:42:43.343Z,3.90
2017-12-12T18:45:11.667Z,3.90
2017-12-12T18:47:40.208Z,3.90
2017-12-12T18:50:08.625Z,3.90
2017-12-12T18:52:36.211Z,3.90
2017-12-12T18:55:03.767Z,3.90
2017-12-12T18:57:31.350Z,3.90
2017-12-12T18:59:59.339Z,3.90
2017-12-12T19:02:27.245Z,3.90
2017-12-12T19:04:54.770Z,3.90
2017-12-12T19:07:22.290Z,4.00
2017-12-12T19:09:49.845Z,3.90
2017-12-12T19:12:17.364Z,3.90
2017-12-12T19:14:45.467Z,3.70
2017-12-12T19:17:13.158Z,3.60
2017-12-12T19:19:40.850Z,3.50
2017-12-12T19:22:08.379Z,3.50
2017-12-12T19:24:36.715Z,3.40
2017-12-12T19:27:04.248Z,3.40
2017-12-12T19:29:31.780Z,3.30
2017-12-12T19:31:59.363Z,3.10
2017-12-12T19:34:26.885Z,2.90
2017-12-12T19:36:55.224Z,3.10
2017-12-12T19:39:24.060Z,3.10
2017-12-12T19:41:51.730Z,3.20
2017-12-12T19:44:19.301Z,3.10
2017-12-12T19:46:46.839Z,2.60
2017-12-12T19:49:15.159Z,2.50
2017-12-12T19:51:42.937Z,2.40
2017-12-12T19:54:10.540Z,2.40
2017-12-12T19:56:38.135Z,2.50
2017-12-12T19:59:05.660Z,2.50
2017-12-12T20:01:34.138Z,2.40
2017-12-12T20:04:01.696Z,2.30
2017-12-12T20:06:29.991Z,2.50
2017-12-12T20:08:58.494Z,2.50
2017-12-12T20:11:26.058Z,2.50
2017-12-12T20:13:54.566Z,2.60
2017-12-12T20:16:23.277Z,2.60
2017-12-12T20:18:52.560Z,2.50
2017-12-12T20:21:20.502Z,2.50
2017-12-12T20:23:48.410Z,2.50
2017-12-12T20:26:16.273Z,2.50
2017-12-12T20:28:45.115Z,2.60
2017-12-12T20:31:13.739Z,2.60
2017-12-12T20:33:41.299Z,2.50
2017-12-12T20:36:08.864Z,2.50
2017-12-12T20:38:36.391Z,2.40
2017-12-12T20:41:03.947Z,2.30
2017-12-12T20:46:11.167Z,2.40
2017-12-12T20:51:20.062Z,2.30
2017-12-12T20:53:47.600Z,2.40
2017-12-12T20:56:15.903Z,2.30
2017-12-12T20:58:44.084Z,2.20
2017-12-12T21:01:11.612Z,2.20
2017-12-12T21:03:39.158Z,2.30
2017-12-12T21:06:07.776Z,2.00
2017-12-12T21:08:35.455Z,2.00
2017-12-12T21:11:02.971Z,2.10
2017-12-12T21:13:31.283Z,2.30
2017-12-12T21:15:59.804Z,2.30
2017-12-12T21:18:28.100Z,2.50
2017-12-12T21:20:56.438Z,2.60
2017-12-12T21:23:23.967Z,2.50
2017-12-12T21:25:57.279Z,2.60
2017-12-12T21:28:24.843Z,2.70
2017-12-12T21:30:52.523Z,2.60
2017-12-12T21:33:20.062Z,2.40
2017-12-12T21:35:47.639Z,2.30
2017-12-12T21:38:15.163Z,2.30
2017-12-12T21:40:42.708Z,2.30
2017-12-12T21:43:10.261Z,2.30
2017-12-12T21:45:37.789Z,2.50
2017-12-12T21:48:06.104Z,2.40
2017-12-12T21:50:33.671Z,2.40
2017-12-12T21:53:01.213Z,2.10
2017-12-12T21:55:28.862Z,2.20
2017-12-12T21:57:58.144Z,2.20
2017-12-12T22:00:26.437Z,2.10
2017-12-12T22:02:54.128Z,2.10
2017-12-12T22:05:21.686Z,2.00
2017-12-12T22:07:49.223Z,2.00
2017-12-12T22:10:17.733Z,2.00
2017-12-12T22:12:47.223Z,2.00
2017-12-12T22:15:14.779Z,2.00
2017-12-12T22:17:42.336Z,1.80
2017-12-12T22:20:09.867Z,1.70
2017-12-12T22:22:38.164Z,1.60
2017-12-12T22:25:07.412Z,1.70
2017-12-12T22:27:34.937Z,1.70
2017-12-12T22:30:02.495Z,1.80
2017-12-12T22:32:30.088Z,1.90
2017-12-12T22:34:57.627Z,1.90
2017-12-12T22:37:25.177Z,1.90
2017-12-12T22:39:54.671Z,1.80
2017-12-12T22:42:22.239Z,1.80
2017-12-12T22:44:49.767Z,1.90
2017-12-12T22:47:18.063Z,1.90
2017-12-12T22:49:45.620Z,1.90
2017-12-12T22:52:13.161Z,1.70
2017-12-12T22:54:42.475Z,1.50
2017-12-12T22:57:10.873Z,1.50
2017-12-12T22:59:38.443Z,1.50
2017-12-12T23:02:05.966Z,1.50
2017-12-12T23:04:33.541Z,1.60
2017-12-12T23:07:01.320Z,1.70
2017-12-12T23:09:28.870Z,1.70
2017-12-12T23:11:56.410Z,1.60
2017-12-12T23:14:23.978Z,1.70
2017-12-12T23:16:51.523Z,1.70
2017-12-12T23:19:19.093Z,1.80
2017-12-12T23:21:46.876Z,1.80
2017-12-12T23:24:14.426Z,1.80
2017-12-12T23:26:42.178Z,1.70
2017-12-12T23:29:09.724Z,1.60
2017-12-12T23:31:38.052Z,1.50
2017-12-12T23:34:05.631Z,1.50
2017-12-12T23:36:33.206Z,1.50
2017-12-12T23:39:01.035Z,1.30
2017-12-12T23:41:31.451Z,1.30
2017-12-12T23:43:59.028Z,1.20
2017-12-12T23:46:26.673Z,1.20
2017-12-12T23:48:54.240Z,1.30
2017-12-12T23:51:21.783Z,1.30
2017-12-12T23:53:51.275Z,1.10
2017-12-12T23:56:18.816Z,1.10
2017-12-12T23:58:47.335Z,1.20
